createdAt,value
2019-05-11T00:00:13.272Z,6.44
2019-05-11T00:02:42.534Z,6.50
2019-05-11T00:05:11.768Z,6.61
2019-05-11T00:07:40.999Z,6.70
2019-05-11T00:10:10.268Z,6.73
2019-05-11T00:12:39.494Z,6.75
2019-05-11T00:15:08.893Z,6.76
2019-05-11T00:17:38.223Z,6.39
2019-05-11T00:20:08.072Z,6.25
2019-05-11T00:22:37.811Z,5.99
2019-05-11T00:25:07.189Z,5.96
2019-05-11T00:27:36.508Z,5.82
2019-05-11T00:30:06.459Z,5.85
2019-05-11T00:32:35.729Z,5.74
2019-05-11T00:35:05.176Z,5.93
2019-05-11T00:37:34.401Z,5.97
2019-05-11T00:40:13.814Z,6.14
2019-05-11T00:42:35.084Z,6.12
2019-05-11T00:45:04.751Z,6.07
2019-05-11T00:47:34.052Z,6.20
2019-05-11T00:50:03.288Z,6.03
2019-05-11T00:52:32.515Z,6.19
2019-05-11T00:55:01.884Z,6.16
2019-05-11T00:57:31.121Z,6.06
2019-05-11T01:00:00.348Z,6.21
2019-05-11T01:02:29.684Z,6.08
2019-05-11T01:04:58.896Z,6.05
2019-05-11T01:07:28.132Z,5.98
2019-05-11T01:09:57.401Z,5.41
2019-05-11T01:12:26.627Z,5.45
2019-05-11T01:14:55.873Z,5.21
2019-05-11T01:17:25.182Z,4.79
2019-05-11T01:19:54.403Z,4.78
2019-05-11T01:22:23.641Z,4.89
2019-05-11T01:24:53.000Z,5.01
2019-05-11T01:27:22.243Z,5.05
2019-05-11T01:29:51.474Z,5.19
2019-05-11T01:32:20.746Z,5.20
2019-05-11T01:34:49.979Z,5.27
2019-05-11T01:37:19.227Z,5.40
2019-05-11T01:39:48.510Z,5.37
2019-05-11T01:42:17.743Z,5.36
2019-05-11T01:44:46.980Z,5.38
2019-05-11T01:47:18.175Z,5.17
2019-05-11T01:49:47.411Z,5.35
2019-05-11T01:52:16.637Z,5.44
2019-05-11T01:54:45.910Z,4.92
2019-05-11T01:57:15.157Z,4.76
2019-05-11T01:59:44.387Z,4.98
2019-05-11T02:02:13.677Z,5.12
2019-05-11T02:04:42.909Z,5.07
2019-05-11T02:07:12.609Z,5.07
2019-05-11T02:09:41.935Z,5.17
2019-05-11T02:12:11.165Z,5.13
2019-05-11T02:14:40.398Z,5.10
2019-05-11T02:17:09.667Z,4.90
2019-05-11T02:19:41.672Z,4.92
2019-05-11T02:22:10.900Z,5.03
2019-05-11T02:24:40.194Z,4.97
2019-05-11T02:27:09.429Z,5.03
2019-05-11T02:29:41.436Z,4.98
2019-05-11T02:32:10.113Z,4.75
2019-05-11T02:34:39.346Z,3.92
2019-05-11T02:37:08.579Z,3.64
2019-05-11T02:39:37.858Z,3.58
2019-05-11T02:42:07.108Z,3.60
2019-05-11T02:44:36.341Z,3.50
2019-05-11T02:47:05.632Z,3.75
2019-05-11T02:49:34.865Z,4.04
2019-05-11T02:52:04.100Z,4.17
2019-05-11T02:54:33.601Z,4.29
2019-05-11T02:57:02.940Z,4.36
2019-05-11T02:59:32.338Z,4.51
2019-05-11T03:02:01.938Z,4.46
2019-05-11T03:04:31.163Z,4.52
2019-05-11T03:07:00.399Z,4.67
2019-05-11T03:09:29.739Z,4.41
2019-05-11T03:11:58.911Z,3.93
2019-05-11T03:14:28.150Z,3.64
2019-05-11T03:17:14.040Z,3.64
2019-05-11T03:19:43.280Z,3.47
2019-05-11T03:22:12.520Z,3.55
2019-05-11T03:24:41.814Z,3.71
2019-05-11T03:27:11.043Z,3.66
2019-05-11T03:29:40.335Z,3.61
2019-05-11T03:32:09.611Z,3.61
2019-05-11T03:34:38.849Z,3.44
2019-05-11T03:37:08.384Z,3.12
2019-05-11T03:39:37.734Z,2.90
2019-05-11T03:42:14.787Z,3.26
2019-05-11T03:44:37.848Z,3.14
2019-05-11T03:47:07.119Z,2.97
2019-05-11T03:49:38.639Z,3.24
2019-05-11T03:52:07.872Z,3.12
2019-05-11T03:54:37.148Z,3.31
2019-05-11T03:57:07.300Z,3.56
2019-05-11T03:59:36.552Z,3.94
2019-05-11T04:02:05.930Z,4.30
2019-05-11T04:04:35.221Z,4.47
2019-05-11T04:07:04.451Z,4.45
2019-05-11T04:09:33.730Z,4.64
2019-05-11T04:12:02.983Z,4.32
2019-05-11T04:14:32.227Z,4.41
2019-05-11T04:17:01.503Z,4.36
2019-05-11T04:19:30.741Z,4.77
2019-05-11T04:22:02.835Z,4.84
2019-05-11T04:24:33.469Z,5.10
2019-05-11T04:27:03.011Z,5.40
2019-05-11T04:29:32.282Z,5.63
2019-05-11T04:32:01.518Z,5.51
2019-05-11T04:34:30.745Z,5.90
2019-05-11T04:37:00.021Z,6.14
2019-05-11T04:39:29.265Z,6.57
2019-05-11T04:41:58.622Z,6.90
2019-05-11T04:44:27.920Z,7.14
2019-05-11T04:46:57.154Z,7.29
2019-05-11T04:49:26.384Z,7.65
2019-05-11T04:51:55.668Z,7.86
2019-05-11T04:54:24.920Z,8.01
2019-05-11T04:56:54.124Z,8.32
2019-05-11T04:59:23.405Z,8.53
2019-05-11T05:01:52.632Z,8.88
2019-05-11T05:04:21.864Z,9.10
2019-05-11T05:06:59.560Z,9.30
2019-05-11T05:09:22.162Z,9.37
2019-05-11T05:11:51.607Z,9.45
2019-05-11T05:14:20.863Z,9.54
2019-05-11T05:16:50.108Z,10.04
2019-05-11T05:19:19.356Z,10.31
2019-05-11T05:21:48.631Z,10.22
2019-05-11T05:24:17.883Z,10.10
2019-05-11T05:26:47.116Z,10.06
2019-05-11T05:29:16.483Z,10.40
2019-05-11T05:31:45.840Z,10.73
2019-05-11T05:34:15.056Z,10.93
2019-05-11T05:36:44.337Z,11.31
2019-05-11T05:39:13.574Z,11.17
2019-05-11T05:41:42.811Z,11.65
2019-05-11T05:44:12.077Z,11.96
2019-05-11T05:46:41.307Z,12.37
2019-05-11T05:49:10.539Z,12.09
2019-05-11T05:51:39.876Z,12.11
2019-05-11T05:54:09.108Z,12.22
2019-05-11T05:56:38.351Z,12.32
2019-05-11T05:59:07.623Z,12.05
2019-05-11T06:01:36.881Z,12.27
2019-05-11T06:04:06.123Z,12.75
2019-05-11T06:06:35.388Z,12.97
2019-05-11T06:09:06.585Z,13.09
2019-05-11T06:11:35.820Z,12.82
2019-05-11T06:14:05.189Z,13.38
2019-05-11T06:16:34.414Z,13.42
2019-05-11T06:19:03.660Z,13.94
2019-05-11T06:21:32.928Z,14.05
2019-05-11T06:24:06.635Z,13.82
2019-05-11T06:26:33.046Z,13.78
2019-05-11T06:29:04.468Z,13.57
2019-05-11T06:31:34.294Z,13.82
2019-05-11T06:34:03.642Z,13.53
2019-05-11T06:36:33.113Z,13.68
2019-05-11T06:39:02.359Z,14.02
2019-05-11T06:41:31.597Z,13.83
2019-05-11T06:44:02.308Z,14.07
2019-05-11T06:46:34.848Z,14.15
2019-05-11T06:49:02.717Z,14.44
2019-05-11T06:51:31.996Z,14.81
2019-05-11T06:54:01.369Z,14.83
2019-05-11T06:56:30.600Z,14.82
2019-05-11T06:58:59.953Z,15.14
2019-05-11T07:01:29.296Z,14.97
2019-05-11T07:03:58.537Z,15.34
2019-05-11T07:06:30.435Z,15.24
2019-05-11T07:08:58.674Z,15.60
2019-05-11T07:11:27.901Z,15.68
2019-05-11T07:13:57.176Z,15.77
2019-05-11T07:16:26.420Z,16.05
2019-05-11T07:18:55.651Z,16.12
2019-05-11T07:21:24.978Z,16.35
2019-05-11T07:23:54.224Z,16.00
2019-05-11T07:26:23.452Z,16.19
2019-05-11T07:28:52.724Z,16.08
2019-05-11T07:31:21.962Z,16.59
2019-05-11T07:33:51.192Z,16.44
2019-05-11T07:36:20.464Z,16.86
2019-05-11T07:38:49.789Z,16.65
2019-05-11T07:41:19.020Z,16.92
2019-05-11T07:43:48.581Z,17.30
2019-05-11T07:46:18.335Z,17.09
2019-05-11T07:48:48.048Z,16.98
2019-05-11T07:51:18.251Z,17.19
2019-05-11T07:53:48.653Z,17.16
2019-05-11T07:56:18.852Z,16.90
2019-05-11T07:58:48.315Z,17.05
2019-05-11T08:01:18.922Z,17.38
2019-05-11T08:03:48.539Z,17.35
2019-05-11T08:06:18.467Z,17.69
2019-05-11T08:08:49.067Z,17.67
2019-05-11T08:11:18.561Z,17.49
2019-05-11T08:13:48.241Z,17.93
2019-05-11T08:16:20.238Z,17.68
2019-05-11T08:18:49.475Z,17.47
2019-05-11T08:21:18.768Z,17.85
2019-05-11T08:23:48.461Z,18.32
2019-05-11T08:26:19.016Z,18.19
2019-05-11T08:28:48.800Z,18.30
2019-05-11T08:31:18.708Z,17.72
2019-05-11T08:33:48.300Z,18.01
2019-05-11T08:36:18.432Z,18.35
2019-05-11T08:38:48.415Z,18.62
2019-05-11T08:41:18.429Z,19.04
2019-05-11T08:43:48.299Z,18.94
2019-05-11T08:46:18.543Z,19.16
2019-05-11T08:48:48.268Z,18.30
2019-05-11T08:51:18.655Z,18.46
2019-05-11T08:53:48.424Z,19.01
2019-05-11T08:56:18.901Z,19.47
2019-05-11T08:58:49.247Z,19.31
2019-05-11T09:01:18.775Z,19.25
2019-05-11T09:03:48.075Z,19.12
2019-05-11T09:06:18.031Z,19.27
2019-05-11T09:08:49.364Z,19.88
2019-05-11T09:11:19.051Z,19.83
2019-05-11T09:13:49.044Z,19.56
2019-05-11T09:16:19.153Z,19.33
2019-05-11T09:18:48.824Z,19.88
2019-05-11T09:21:19.003Z,20.17
2019-05-11T09:23:48.761Z,20.17
2019-05-11T09:26:18.453Z,19.48
2019-05-11T09:28:47.910Z,19.92
2019-05-11T09:31:18.831Z,20.26
2019-05-11T09:33:48.408Z,20.55
2019-05-11T09:36:18.173Z,19.94
2019-05-11T09:38:48.907Z,20.41
2019-05-11T09:41:18.405Z,20.98
2019-05-11T09:43:48.273Z,20.58
2019-05-11T09:46:18.949Z,20.65
2019-05-11T09:48:50.647Z,20.71
2019-05-11T09:51:20.008Z,19.57
2019-05-11T09:53:49.398Z,19.57
2019-05-11T09:56:18.657Z,20.56
2019-05-11T09:58:48.187Z,21.19
2019-05-11T10:01:18.495Z,20.67
2019-05-11T10:03:48.378Z,20.43
2019-05-11T10:06:19.016Z,20.86
2019-05-11T10:08:48.894Z,21.31
2019-05-11T10:11:18.940Z,20.99
2019-05-11T10:13:48.740Z,21.12
2019-05-11T10:16:18.265Z,20.99
2019-05-11T10:18:49.240Z,21.02
2019-05-11T10:21:19.062Z,20.50
2019-05-11T10:23:48.941Z,20.80
2019-05-11T10:26:19.123Z,20.71
2019-05-11T10:28:48.875Z,20.78
2019-05-11T10:31:18.417Z,20.94
2019-05-11T10:33:49.129Z,21.06
2019-05-11T10:36:19.162Z,20.08
2019-05-11T10:38:48.884Z,20.91
2019-05-11T10:41:18.517Z,21.41
2019-05-11T10:43:48.910Z,21.54
2019-05-11T10:46:23.034Z,21.56
2019-05-11T10:48:49.443Z,21.51
2019-05-11T10:51:18.719Z,21.02
2019-05-11T10:53:51.681Z,20.85
2019-05-11T10:56:18.810Z,20.87
2019-05-11T10:58:48.405Z,21.35
2019-05-11T11:01:19.710Z,21.36
2019-05-11T11:03:49.069Z,22.00
2019-05-11T11:06:18.938Z,22.56
2019-05-11T11:08:48.813Z,21.89
2019-05-11T11:11:18.695Z,21.08
2019-05-11T11:13:48.283Z,21.28
2019-05-11T11:16:35.014Z,21.39
2019-05-11T11:18:48.813Z,21.71
2019-05-11T11:21:22.626Z,21.87
2019-05-11T11:23:49.404Z,22.22
2019-05-11T11:26:18.684Z,21.60
2019-05-11T11:28:48.045Z,21.53
2019-05-11T11:31:18.763Z,21.81
2019-05-11T11:33:48.874Z,22.28
2019-05-11T11:36:18.709Z,22.04
2019-05-11T11:38:48.150Z,22.39
2019-05-11T11:41:18.547Z,22.33
2019-05-11T11:43:48.521Z,22.11
2019-05-11T11:46:18.833Z,22.00
2019-05-11T11:48:48.942Z,22.47
2019-05-11T11:51:18.887Z,21.74
2019-05-11T11:53:48.335Z,21.17
2019-05-11T11:56:19.235Z,21.16
2019-05-11T11:58:49.072Z,21.21
2019-05-11T12:01:19.074Z,21.46
2019-05-11T12:03:48.939Z,21.51
2019-05-11T12:06:18.538Z,21.36
2019-05-11T12:08:49.637Z,21.47
2019-05-11T12:11:19.014Z,21.95
2019-05-11T12:13:48.517Z,21.92
2019-05-11T12:16:18.248Z,22.11
2019-05-11T12:18:48.746Z,22.18
2019-05-11T12:21:18.861Z,22.71
2019-05-11T12:23:48.809Z,22.59
2019-05-11T12:26:18.364Z,22.59
2019-05-11T12:28:48.980Z,22.04
2019-05-11T12:31:18.763Z,22.25
2019-05-11T12:33:48.599Z,21.81
2019-05-11T12:36:18.797Z,22.48
2019-05-11T12:38:49.010Z,22.85
2019-05-11T12:41:18.998Z,22.23
2019-05-11T12:43:49.093Z,22.92
2019-05-11T12:46:19.017Z,22.06
2019-05-11T12:48:48.763Z,22.99
2019-05-11T12:51:18.759Z,22.64
2019-05-11T12:53:48.372Z,21.87
2019-05-11T12:56:19.051Z,22.78
2019-05-11T12:58:49.114Z,22.97
2019-05-11T13:01:19.064Z,22.53
2019-05-11T13:03:49.326Z,22.54
2019-05-11T13:06:19.274Z,23.38
2019-05-11T13:08:48.875Z,23.88
2019-05-11T13:11:18.750Z,23.09
2019-05-11T13:13:48.601Z,23.07
2019-05-11T13:16:18.575Z,22.98
2019-05-11T13:18:48.725Z,22.77
2019-05-11T13:21:18.572Z,22.83
2019-05-11T13:23:48.934Z,21.87
2019-05-11T13:26:18.300Z,21.97
2019-05-11T13:28:48.592Z,21.74
2019-05-11T13:31:18.678Z,21.73
2019-05-11T13:33:49.839Z,21.85
2019-05-11T13:36:19.219Z,21.99
2019-05-11T13:38:49.547Z,20.90
2019-05-11T13:41:19.333Z,20.93
2019-05-11T13:43:48.886Z,20.84
2019-05-11T13:46:18.581Z,20.80
2019-05-11T13:48:47.919Z,20.83
2019-05-11T13:51:18.196Z,20.94
2019-05-11T13:53:50.293Z,20.51
2019-05-11T13:56:18.939Z,20.43
2019-05-11T13:58:48.909Z,20.54
2019-05-11T14:01:18.930Z,20.78
2019-05-11T14:03:48.610Z,21.15
2019-05-11T14:06:18.691Z,21.65
2019-05-11T14:08:48.410Z,22.75
2019-05-11T14:11:18.404Z,23.38
2019-05-11T14:13:48.348Z,24.03
2019-05-11T14:16:18.832Z,23.27
2019-05-11T14:18:49.023Z,22.27
2019-05-11T14:21:18.792Z,21.38
2019-05-11T14:23:48.581Z,21.30
2019-05-11T14:26:19.189Z,22.65
2019-05-11T14:28:48.987Z,22.68
2019-05-11T14:31:19.136Z,23.96
2019-05-11T14:33:49.062Z,24.12
2019-05-11T14:36:18.803Z,24.96
2019-05-11T14:38:48.788Z,24.84
2019-05-11T14:41:19.164Z,25.08
2019-05-11T14:43:49.172Z,23.29
2019-05-11T14:46:19.540Z,23.59
2019-05-11T14:48:48.858Z,24.44
2019-05-11T14:51:20.908Z,24.46
2019-05-11T14:53:50.228Z,24.79
2019-05-11T14:56:19.568Z,24.75
2019-05-11T14:58:49.445Z,25.06
2019-05-11T15:01:18.908Z,25.82
2019-05-11T15:03:50.766Z,25.26
2019-05-11T15:06:21.251Z,25.50
2019-05-11T15:08:50.572Z,25.77
2019-05-11T15:11:21.052Z,25.60
2019-05-11T15:13:50.890Z,25.40
2019-05-11T15:16:20.239Z,25.34
2019-05-11T15:18:49.576Z,25.00
2019-05-11T15:21:19.190Z,25.19
2019-05-11T15:23:48.728Z,24.12
2019-05-11T15:26:18.762Z,22.42
2019-05-11T15:28:48.820Z,21.18
2019-05-11T15:31:22.329Z,20.41
2019-05-11T15:33:49.836Z,20.52
2019-05-11T15:36:19.503Z,20.72
2019-05-11T15:38:49.091Z,20.52
2019-05-11T15:41:18.482Z,20.08
2019-05-11T15:43:48.385Z,19.96
2019-05-11T15:46:19.744Z,19.69
2019-05-11T15:49:02.728Z,19.70
2019-05-11T15:51:19.690Z,19.73
2019-05-11T15:53:50.236Z,19.84
2019-05-11T15:56:20.057Z,19.47
2019-05-11T15:58:49.600Z,19.66
2019-05-11T16:01:18.943Z,19.76
2019-05-11T16:03:50.065Z,19.64
2019-05-11T16:06:19.276Z,19.46
2019-05-11T16:08:48.608Z,19.33
2019-05-11T16:11:18.867Z,19.41
2019-05-11T16:13:48.573Z,19.36
2019-05-11T16:16:18.153Z,19.40
2019-05-11T16:18:48.355Z,19.34
2019-05-11T16:21:18.526Z,19.33
2019-05-11T16:23:48.087Z,19.31
2019-05-11T16:26:17.671Z,19.22
2019-05-11T16:28:47.746Z,19.17
2019-05-11T16:31:19.912Z,19.11
2019-05-11T16:33:49.252Z,19.03
2019-05-11T16:36:18.627Z,18.80
2019-05-11T16:38:48.458Z,18.73
2019-05-11T16:41:17.882Z,18.76
2019-05-11T16:43:48.983Z,18.69
2019-05-11T16:46:18.304Z,18.50
2019-05-11T16:48:50.767Z,18.37
2019-05-11T16:51:20.143Z,18.38
2019-05-11T16:53:49.523Z,18.36
2019-05-11T16:56:19.647Z,18.25
2019-05-11T16:58:49.599Z,18.20
2019-05-11T17:01:19.444Z,18.08
2019-05-11T17:03:48.812Z,17.96
2019-05-11T17:06:19.743Z,17.68
2019-05-11T17:08:49.908Z,17.64
2019-05-11T17:11:19.236Z,17.37
2019-05-11T17:13:48.856Z,17.34
2019-05-11T17:16:21.873Z,17.26
2019-05-11T17:18:51.254Z,17.14
2019-05-11T17:21:20.575Z,16.82
2019-05-11T17:23:49.916Z,16.59
2019-05-11T17:26:19.696Z,16.39
2019-05-11T17:28:51.743Z,16.40
2019-05-11T17:31:21.546Z,16.15
2019-05-11T17:33:50.888Z,16.18
2019-05-11T17:36:20.227Z,16.02
2019-05-11T17:38:49.626Z,15.87
2019-05-11T17:41:19.425Z,16.02
2019-05-11T17:43:48.774Z,15.99
2019-05-11T17:46:18.599Z,15.92
2019-05-11T17:48:48.627Z,15.85
2019-05-11T17:51:21.689Z,15.83
2019-05-11T17:53:49.459Z,15.46
2019-05-11T17:56:18.775Z,15.34
2019-05-11T17:58:48.451Z,15.09
2019-05-11T18:01:18.826Z,14.97
2019-05-11T18:03:48.543Z,14.78
2019-05-11T18:06:18.405Z,14.78
2019-05-11T18:08:48.169Z,14.57
2019-05-11T18:11:18.561Z,14.47
2019-05-11T18:13:48.371Z,14.35
2019-05-11T18:16:18.764Z,14.32
2019-05-11T18:18:48.518Z,14.30
2019-05-11T18:21:18.797Z,14.17
2019-05-11T18:23:48.468Z,14.05
2019-05-11T18:26:18.262Z,13.99
2019-05-11T18:28:48.549Z,14.02
2019-05-11T18:31:18.302Z,13.91
2019-05-11T18:33:48.988Z,13.87
2019-05-11T18:36:18.524Z,13.72
2019-05-11T18:38:48.739Z,13.69
2019-05-11T18:41:18.759Z,13.65
2019-05-11T18:43:48.468Z,13.57
2019-05-11T18:46:17.855Z,13.38
2019-05-11T18:48:48.687Z,13.37
2019-05-11T18:51:18.319Z,13.25
2019-05-11T18:53:48.286Z,13.10
2019-05-11T18:56:18.197Z,12.97
2019-05-11T18:58:48.468Z,12.94
2019-05-11T19:01:18.005Z,12.88
2019-05-11T19:03:48.017Z,12.81
2019-05-11T19:06:18.605Z,12.90
2019-05-11T19:08:48.114Z,12.88
2019-05-11T19:11:18.222Z,12.95
2019-05-11T19:13:48.391Z,12.93
2019-05-11T19:16:18.696Z,12.68
2019-05-11T19:18:48.733Z,12.67
2019-05-11T19:21:18.269Z,12.59
2019-05-11T19:23:48.653Z,12.55
2019-05-11T19:26:18.318Z,12.54
2019-05-11T19:28:47.650Z,12.33
2019-05-11T19:31:19.071Z,12.35
2019-05-11T19:33:48.900Z,12.27
2019-05-11T19:36:18.664Z,12.13
2019-05-11T19:38:48.191Z,12.06
2019-05-11T19:41:18.681Z,11.96
2019-05-11T19:43:48.715Z,11.90
2019-05-11T19:46:18.465Z,11.89
2019-05-11T19:48:48.220Z,11.72
2019-05-11T19:51:18.701Z,11.79
2019-05-11T19:53:48.467Z,11.76
2019-05-11T19:56:18.413Z,11.53
2019-05-11T19:58:48.549Z,11.57
2019-05-11T20:01:18.742Z,11.53
2019-05-11T20:03:48.221Z,11.47
2019-05-11T20:06:17.611Z,11.43
2019-05-11T20:08:47.040Z,11.30
2019-05-11T20:11:18.980Z,11.05
2019-05-11T20:13:48.515Z,10.52
2019-05-11T20:16:18.796Z,10.11
2019-05-11T20:18:48.584Z,9.85
2019-05-11T20:21:22.222Z,9.81
2019-05-11T20:23:49.647Z,9.72
2019-05-11T20:26:18.996Z,9.49
2019-05-11T20:28:48.381Z,9.51
2019-05-11T20:31:18.361Z,9.46
2019-05-11T20:33:48.090Z,9.01
2019-05-11T20:36:17.843Z,9.03
2019-05-11T20:38:47.730Z,9.22
2019-05-11T20:41:18.048Z,9.64
2019-05-11T20:43:48.532Z,9.83
2019-05-11T20:46:18.553Z,9.91
2019-05-11T20:48:48.555Z,10.00
2019-05-11T20:51:32.527Z,9.96
2019-05-11T20:53:50.785Z,10.09
2019-05-11T20:56:20.597Z,10.13
2019-05-11T20:58:59.960Z,10.08
2019-05-11T21:01:29.582Z,10.04
2019-05-11T21:03:58.938Z,10.17
2019-05-11T21:06:29.558Z,10.10
2019-05-11T21:08:59.327Z,10.14
2019-05-11T21:11:29.099Z,9.94
2019-05-11T21:13:58.463Z,9.74
2019-05-11T21:16:27.786Z,9.83
2019-05-11T21:18:58.011Z,9.88
2019-05-11T21:21:30.211Z,9.81
2019-05-11T21:23:59.051Z,9.47
2019-05-11T21:26:28.436Z,9.33
2019-05-11T21:28:58.195Z,9.42
2019-05-11T21:31:29.104Z,9.37
2019-05-11T21:34:00.676Z,9.42
2019-05-11T21:36:30.024Z,9.59
2019-05-11T21:38:59.358Z,9.50
2019-05-11T21:41:30.958Z,8.92
2019-05-11T21:44:00.196Z,8.93
2019-05-11T21:46:29.542Z,9.00
2019-05-11T21:48:58.875Z,8.57
2019-05-11T21:51:28.757Z,8.48
2019-05-11T21:54:01.114Z,8.14
2019-05-11T21:56:30.424Z,7.95
2019-05-11T21:58:59.787Z,7.94
2019-05-11T22:01:29.111Z,8.32
2019-05-11T22:03:59.525Z,8.53
2019-05-11T22:06:30.546Z,8.66
2019-05-11T22:09:00.369Z,8.71
2019-05-11T22:11:29.683Z,8.85
2019-05-11T22:14:01.497Z,8.82
2019-05-11T22:16:34.033Z,8.91
2019-05-11T22:19:03.468Z,8.87
2019-05-11T22:21:32.948Z,8.90
2019-05-11T22:24:02.263Z,8.82
2019-05-11T22:26:31.583Z,8.82
2019-05-11T22:29:00.945Z,9.00
2019-05-11T22:31:30.275Z,8.80
2019-05-11T22:33:59.593Z,8.00
2019-05-11T22:36:28.963Z,7.72
2019-05-11T22:38:58.944Z,7.48
2019-05-11T22:41:28.602Z,7.64
2019-05-11T22:43:58.356Z,7.63
2019-05-11T22:46:28.231Z,7.88
2019-05-11T22:48:58.269Z,7.92
2019-05-11T22:51:28.771Z,7.84
2019-05-11T22:53:59.247Z,7.79
2019-05-11T22:56:28.750Z,7.72
2019-05-11T22:58:58.699Z,7.80
2019-05-11T23:01:28.375Z,7.79
2019-05-11T23:03:58.457Z,7.18
2019-05-11T23:06:28.529Z,6.86
2019-05-11T23:08:58.697Z,6.69
2019-05-11T23:11:28.595Z,6.51
2019-05-11T23:13:58.196Z,6.75
2019-05-11T23:16:28.532Z,6.79
2019-05-11T23:18:58.707Z,6.92
2019-05-11T23:21:30.237Z,7.10
2019-05-11T23:23:59.013Z,6.96
2019-05-11T23:26:29.922Z,6.99
2019-05-11T23:29:01.057Z,7.05
2019-05-11T23:31:30.752Z,6.84
2019-05-11T23:34:00.116Z,6.94
2019-05-11T23:36:29.451Z,7.05
2019-05-11T23:38:58.778Z,7.32
2019-05-11T23:41:28.833Z,7.52
2019-05-11T23:43:58.531Z,7.57
2019-05-11T23:46:28.611Z,7.69
2019-05-11T23:48:58.683Z,7.59
2019-05-11T23:51:28.226Z,7.60
2019-05-11T23:53:58.913Z,7.70
2019-05-11T23:56:28.592Z,7.62
2019-05-11T23:58:58.295Z,7.62
